createdAt,value
2018-01-10T00:01:07.924Z,93.42
2018-01-10T00:03:34.912Z,93.38
2018-01-10T00:06:01.969Z,93.16
2018-01-10T00:08:28.979Z,93.11
2018-01-10T00:10:55.978Z,93.43
2018-01-10T00:13:23.002Z,93.35
2018-01-10T00:15:50.755Z,93.09
2018-01-10T00:18:18.552Z,92.96
2018-01-10T00:20:45.617Z,92.70
2018-01-10T00:23:13.282Z,92.81
2018-01-10T00:25:40.563Z,93.31
2018-01-10T00:28:07.709Z,93.07
2018-01-10T00:30:34.874Z,92.62
2018-01-10T00:35:41.917Z,92.73
2018-01-10T00:38:08.925Z,93.04
2018-01-10T00:40:36.048Z,92.57
2018-01-10T00:43:03.125Z,93.13
2018-01-10T00:45:30.844Z,93.10
2018-01-10T00:47:57.762Z,93.20
2018-01-10T00:50:24.958Z,92.69
2018-01-10T00:52:52.017Z,92.64
2018-01-10T00:55:19.353Z,92.41
2018-01-10T00:57:46.460Z,92.29
2018-01-10T01:00:13.657Z,92.68
2018-01-10T01:02:41.451Z,92.79
2018-01-10T01:05:08.529Z,93.05
2018-01-10T01:07:35.830Z,92.70
2018-01-10T01:10:03.072Z,93.05
2018-01-10T01:12:30.212Z,92.51
2018-01-10T01:14:57.568Z,92.36
2018-01-10T01:17:24.690Z,93.00
2018-01-10T01:19:51.987Z,92.44
2018-01-10T01:22:19.193Z,92.86
2018-01-10T01:24:46.506Z,92.62
2018-01-10T01:27:13.782Z,92.12
2018-01-10T01:29:41.189Z,92.97
2018-01-10T01:32:09.933Z,92.71
2018-01-10T01:34:37.114Z,92.88
2018-01-10T01:37:04.084Z,92.84
2018-01-10T01:39:31.136Z,92.85
2018-01-10T01:42:00.071Z,92.67
2018-01-10T01:44:29.121Z,92.74
2018-01-10T01:46:56.401Z,92.62
2018-01-10T01:49:24.594Z,92.72
2018-01-10T01:51:53.083Z,93.11
2018-01-10T01:54:20.405Z,92.54
2018-01-10T01:56:48.474Z,92.27
2018-01-10T01:59:17.580Z,92.27
2018-01-10T02:01:50.663Z,92.42
2018-01-10T02:04:18.597Z,92.34
2018-01-10T02:09:20.627Z,92.41
2018-01-10T02:11:49.561Z,92.86
2018-01-10T02:14:18.824Z,92.66
2018-01-10T02:34:46.341Z,92.68
2018-01-10T02:37:14.099Z,92.75
2018-01-10T02:39:43.254Z,92.52
2018-01-10T02:55:47.535Z,92.49
2018-01-10T02:58:15.444Z,92.76
2018-01-10T03:00:42.554Z,92.61
2018-01-10T03:03:09.875Z,92.47
2018-01-10T03:05:37.784Z,92.84
2018-01-10T03:08:05.066Z,92.26
2018-01-10T03:10:32.840Z,92.69
2018-01-10T03:13:00.087Z,92.60
2018-01-10T03:15:27.448Z,92.72
2018-01-10T03:17:54.684Z,92.95
2018-01-10T03:20:23.495Z,92.94
2018-01-10T03:22:50.532Z,93.05
2018-01-10T03:25:17.821Z,92.13
2018-01-10T03:27:45.608Z,92.80
2018-01-10T03:30:13.393Z,92.52
2018-01-10T03:32:40.425Z,92.88
2018-01-10T03:35:07.493Z,92.73
2018-01-10T03:37:34.401Z,92.98
2018-01-10T03:40:01.305Z,93.00
2018-01-10T03:42:28.214Z,92.72
2018-01-10T03:44:55.300Z,92.82
2018-01-10T03:47:22.205Z,92.93
2018-01-10T03:49:49.066Z,92.81
2018-01-10T03:52:16.863Z,92.49
2018-01-10T03:54:43.820Z,92.69
2018-01-10T03:57:10.848Z,92.74
2018-01-10T03:59:38.590Z,93.00
2018-01-10T04:02:05.597Z,92.97
2018-01-10T04:04:32.498Z,93.00
2018-01-10T04:06:59.487Z,92.98
2018-01-10T04:09:26.426Z,93.27
2018-01-10T04:11:53.397Z,93.25
2018-01-10T04:14:20.448Z,93.32
2018-01-10T04:16:47.411Z,93.28
2018-01-10T04:19:14.292Z,93.19
2018-01-10T04:21:41.276Z,93.32
2018-01-10T04:24:08.199Z,93.48
2018-01-10T04:26:35.900Z,93.74
2018-01-10T04:29:02.798Z,93.62
2018-01-10T04:31:29.674Z,93.35
2018-01-10T04:33:58.674Z,93.34
2018-01-10T04:36:26.740Z,94.06
2018-01-10T04:38:54.088Z,93.58
2018-01-10T04:41:22.296Z,94.22
2018-01-10T04:43:49.373Z,93.59
2018-01-10T04:46:17.572Z,93.85
2018-01-10T04:48:45.964Z,93.84
2018-01-10T04:51:14.176Z,93.41
2018-01-10T04:53:43.895Z,93.37
2018-01-10T04:56:11.433Z,93.86
2018-01-10T04:58:38.725Z,94.17
2018-01-10T05:01:07.022Z,94.68
2018-01-10T05:03:35.146Z,93.99
2018-01-10T05:06:02.686Z,94.47
2018-01-10T05:08:35.682Z,94.06
2018-01-10T05:11:02.932Z,94.00
2018-01-10T05:13:31.222Z,94.25
2018-01-10T05:15:59.685Z,94.57
2018-01-10T05:18:27.112Z,94.69
2018-01-10T05:20:54.271Z,94.22
2018-01-10T05:26:03.344Z,94.60
2018-01-10T05:28:31.181Z,94.50
2018-01-10T05:31:01.064Z,94.13
2018-01-10T05:33:27.991Z,94.35
2018-01-10T05:35:54.884Z,94.75
2018-01-10T05:38:21.790Z,94.70
2018-01-10T05:40:48.884Z,94.69
2018-01-10T05:43:16.036Z,94.67
2018-01-10T05:45:44.530Z,94.94
2018-01-10T06:06:16.089Z,94.70
2018-01-10T06:08:45.389Z,94.48
2018-01-10T06:11:13.834Z,94.41
2018-01-10T06:13:43.609Z,94.45
2018-01-10T06:16:12.246Z,94.52
2018-01-10T06:18:40.643Z,94.29
2018-01-10T06:21:08.555Z,94.48
2018-01-10T06:23:36.222Z,94.34
2018-01-10T06:26:03.140Z,94.13
2018-01-10T06:28:30.148Z,94.40
2018-01-10T06:30:57.094Z,94.45
2018-01-10T06:33:24.170Z,94.31
2018-01-10T06:35:51.098Z,94.26
2018-01-10T06:38:18.074Z,94.26
2018-01-10T06:40:45.053Z,94.40
2018-01-10T06:43:12.245Z,94.44
2018-01-10T06:45:39.186Z,94.60
2018-01-10T06:48:06.127Z,94.20
2018-01-10T06:50:33.145Z,94.41
2018-01-10T06:53:00.780Z,94.67
2018-01-10T06:55:28.034Z,94.18
2018-01-10T06:57:55.004Z,94.43
2018-01-10T07:00:22.059Z,94.56
2018-01-10T07:02:49.142Z,94.06
2018-01-10T07:05:16.258Z,94.16
2018-01-10T07:07:44.114Z,94.08
2018-01-10T07:10:11.150Z,93.61
2018-01-10T07:12:38.113Z,94.15
2018-01-10T07:15:05.040Z,94.25
2018-01-10T07:17:32.000Z,93.81
2018-01-10T07:19:59.732Z,94.08
2018-01-10T07:22:26.673Z,93.84
2018-01-10T07:24:53.658Z,93.97
2018-01-10T07:27:20.693Z,93.57
2018-01-10T07:29:47.586Z,93.68
2018-01-10T07:32:14.471Z,93.91
2018-01-10T07:34:41.467Z,93.65
2018-01-10T07:37:08.446Z,93.68
2018-01-10T07:39:35.487Z,93.44
2018-01-10T07:42:03.162Z,93.41
2018-01-10T07:44:30.069Z,93.40
2018-01-10T07:46:56.922Z,93.54
2018-01-10T07:49:23.805Z,93.65
2018-01-10T07:51:50.640Z,93.67
2018-01-10T07:54:17.469Z,93.65
2018-01-10T07:56:45.053Z,93.70
2018-01-10T07:59:11.873Z,93.86
2018-01-10T08:01:38.753Z,94.01
2018-01-10T08:04:05.647Z,94.03
2018-01-10T08:06:33.194Z,93.85
2018-01-10T08:08:59.995Z,93.93
2018-01-10T08:11:26.884Z,94.29
2018-01-10T08:13:53.678Z,94.20
2018-01-10T08:16:20.499Z,94.40
2018-01-10T08:18:47.310Z,94.24
2018-01-10T08:21:14.117Z,94.46
2018-01-10T08:23:40.913Z,94.46
2018-01-10T08:26:07.816Z,94.33
2018-01-10T08:28:35.367Z,94.18
2018-01-10T08:31:02.228Z,93.85
2018-01-10T08:33:29.761Z,93.68
2018-01-10T08:35:56.541Z,93.81
2018-01-10T08:38:23.328Z,93.83
2018-01-10T08:40:50.127Z,93.86
2018-01-10T08:43:16.910Z,92.96
2018-01-10T08:45:43.718Z,93.34
2018-01-10T08:48:11.244Z,93.35
2018-01-10T08:50:38.038Z,93.11
2018-01-10T08:53:04.797Z,93.19
2018-01-10T08:55:31.585Z,93.00
2018-01-10T08:57:59.143Z,92.79
2018-01-10T09:00:26.684Z,92.56
2018-01-10T09:02:53.455Z,92.22
2018-01-10T09:05:20.303Z,91.47
2018-01-10T09:07:47.087Z,91.29
2018-01-10T09:10:13.910Z,91.59
2018-01-10T09:12:40.752Z,91.01
2018-01-10T09:15:07.645Z,91.21
2018-01-10T09:17:34.437Z,91.23
2018-01-10T09:20:01.256Z,90.84
2018-01-10T09:22:28.117Z,90.32
2018-01-10T09:24:55.718Z,89.93
2018-01-10T09:27:22.558Z,89.90
2018-01-10T09:29:49.363Z,90.19
2018-01-10T09:32:16.171Z,89.98
2018-01-10T09:34:43.007Z,89.38
2018-01-10T09:37:09.956Z,89.78
2018-01-10T09:39:38.065Z,89.35
2018-01-10T09:42:10.037Z,88.44
2018-01-10T09:44:37.699Z,88.09
2018-01-10T09:47:04.918Z,88.22
2018-01-10T09:49:31.813Z,87.87
2018-01-10T09:51:58.824Z,87.86
2018-01-10T09:54:26.067Z,87.41
2018-01-10T09:56:52.953Z,86.62
2018-01-10T09:59:20.835Z,86.36
2018-01-10T10:01:48.521Z,86.30
2018-01-10T10:04:15.469Z,84.82
2018-01-10T10:06:43.442Z,86.31
2018-01-10T10:09:11.084Z,86.24
2018-01-10T10:11:38.487Z,85.83
2018-01-10T10:14:09.703Z,85.95
2018-01-10T10:16:37.415Z,85.44
2018-01-10T10:19:04.313Z,85.50
2018-01-10T10:21:32.162Z,85.09
2018-01-10T10:23:59.301Z,85.04
2018-01-10T10:26:26.273Z,85.33
2018-01-10T10:28:53.188Z,84.86
2018-01-10T10:31:25.823Z,85.04
2018-01-10T10:34:09.101Z,84.77
2018-01-10T10:36:37.243Z,85.07
2018-01-10T10:39:04.262Z,85.31
2018-01-10T10:41:31.149Z,85.21
2018-01-10T10:43:59.453Z,85.70
2018-01-10T10:46:31.587Z,85.40
2018-01-10T10:48:59.299Z,85.28
2018-01-10T10:51:27.260Z,84.84
2018-01-10T10:53:54.384Z,85.00
2018-01-10T10:56:27.253Z,84.78
2018-01-10T10:58:55.961Z,84.88
2018-01-10T11:01:26.127Z,84.89
2018-01-10T11:03:55.130Z,85.13
2018-01-10T11:06:22.698Z,85.30
2018-01-10T11:08:50.328Z,85.27
2018-01-10T11:11:23.488Z,85.39
2018-01-10T11:13:50.312Z,85.18
2018-01-10T11:16:17.251Z,84.44
2018-01-10T11:18:44.297Z,83.77
2018-01-10T11:21:12.135Z,84.38
2018-01-10T11:23:39.124Z,83.61
2018-01-10T11:26:06.046Z,83.81
2018-01-10T11:28:42.052Z,83.56
2018-01-10T11:31:09.347Z,82.76
2018-01-10T11:33:37.239Z,82.89
2018-01-10T11:36:04.257Z,83.15
2018-01-10T11:38:32.168Z,82.25
2018-01-10T11:40:59.205Z,82.50
2018-01-10T11:43:27.123Z,82.88
2018-01-10T11:45:54.165Z,82.40
2018-01-10T11:48:21.129Z,81.43
2018-01-10T11:50:48.893Z,80.87
2018-01-10T11:53:20.919Z,81.18
2018-01-10T11:55:48.227Z,81.39
2018-01-10T11:58:15.277Z,80.75
2018-01-10T12:00:42.182Z,81.16
2018-01-10T12:03:12.561Z,80.52
2018-01-10T12:05:40.950Z,80.50
2018-01-10T12:08:07.936Z,80.12
2018-01-10T12:10:35.048Z,79.90
2018-01-10T12:13:02.241Z,79.98
2018-01-10T12:15:34.708Z,78.43
2018-01-10T12:18:02.675Z,79.26
2018-01-10T12:20:29.577Z,79.27
2018-01-10T12:22:56.663Z,78.29
2018-01-10T12:25:23.588Z,78.85
2018-01-10T12:27:50.638Z,77.26
2018-01-10T12:30:19.200Z,77.30
2018-01-10T12:32:46.216Z,77.74
2018-01-10T12:35:13.889Z,77.48
2018-01-10T12:37:41.912Z,76.93
2018-01-10T12:40:08.938Z,77.62
2018-01-10T12:42:35.822Z,77.40
2018-01-10T12:45:03.544Z,77.52
2018-01-10T12:47:30.982Z,77.79
2018-01-10T12:49:58.761Z,77.34
2018-01-10T12:52:26.874Z,77.33
2018-01-10T12:54:53.761Z,77.74
2018-01-10T12:57:21.224Z,78.04
2018-01-10T12:59:48.914Z,77.84
2018-01-10T13:02:16.474Z,78.75
2018-01-10T13:04:43.626Z,78.86
2018-01-10T13:07:10.538Z,77.68
2018-01-10T13:09:37.509Z,78.99
2018-01-10T13:12:05.436Z,78.25
2018-01-10T13:14:33.207Z,77.33
2018-01-10T13:17:01.003Z,78.17
2018-01-10T13:19:28.609Z,78.39
2018-01-10T13:21:55.697Z,78.40
2018-01-10T13:24:22.890Z,77.89
2018-01-10T13:26:50.648Z,78.74
2018-01-10T13:29:22.896Z,77.79
2018-01-10T13:31:49.954Z,77.89
2018-01-10T13:34:21.896Z,78.07
2018-01-10T13:36:55.230Z,78.28
2018-01-10T13:39:22.604Z,78.67
2018-01-10T13:41:50.461Z,78.08
2018-01-10T13:44:17.575Z,78.76
2018-01-10T13:46:49.776Z,78.52
2018-01-10T13:49:17.644Z,77.25
2018-01-10T13:51:45.576Z,78.05
2018-01-10T13:54:12.634Z,76.73
2018-01-10T13:56:40.080Z,77.65
2018-01-10T13:59:07.438Z,77.98
2018-01-10T14:01:34.454Z,77.25
2018-01-10T14:04:08.742Z,77.79
2018-01-10T14:06:40.707Z,77.11
2018-01-10T14:09:08.370Z,77.13
2018-01-10T14:11:35.989Z,76.62
2018-01-10T14:14:08.362Z,76.29
2018-01-10T14:16:35.739Z,76.35
2018-01-10T14:19:02.760Z,76.43
2018-01-10T14:21:30.673Z,76.48
2018-01-10T14:23:58.385Z,77.12
2018-01-10T14:26:25.422Z,76.02
2018-01-10T14:28:55.270Z,76.24
2018-01-10T14:31:43.672Z,75.52
2018-01-10T14:34:10.856Z,76.38
2018-01-10T14:36:39.072Z,76.23
2018-01-10T14:39:06.200Z,76.28
2018-01-10T14:41:38.267Z,76.28
2018-01-10T14:44:06.015Z,76.64
2018-01-10T14:46:35.037Z,76.61
2018-01-10T14:49:03.340Z,76.67
2018-01-10T14:51:35.544Z,76.17
2018-01-10T14:54:03.124Z,76.47
2018-01-10T14:56:30.137Z,76.64
2018-01-10T14:58:58.206Z,76.84
2018-01-10T15:01:25.230Z,76.25
2018-01-10T15:03:53.176Z,76.49
2018-01-10T15:06:25.707Z,76.08
2018-01-10T15:08:53.351Z,76.62
2018-01-10T15:11:20.792Z,76.11
2018-01-10T15:13:53.427Z,76.77
2018-01-10T15:16:20.416Z,76.54
2018-01-10T15:18:47.998Z,76.85
2018-01-10T15:21:15.105Z,77.43
2018-01-10T15:23:47.235Z,76.93
2018-01-10T15:26:14.309Z,77.96
2018-01-10T15:28:41.244Z,78.04
2018-01-10T15:31:08.198Z,77.87
2018-01-10T15:33:35.728Z,77.91
2018-01-10T15:36:03.080Z,77.77
2018-01-10T15:38:30.309Z,78.09
2018-01-10T15:40:57.769Z,78.29
2018-01-10T15:43:26.843Z,78.50
2018-01-10T15:45:54.132Z,78.77
2018-01-10T15:48:21.258Z,78.80
2018-01-10T15:50:48.341Z,79.19
2018-01-10T15:53:15.438Z,79.08
2018-01-10T15:55:42.504Z,79.13
2018-01-10T15:58:15.025Z,79.25
2018-01-10T16:00:42.740Z,79.54
2018-01-10T16:03:09.870Z,79.24
2018-01-10T16:05:38.657Z,79.42
2018-01-10T16:08:05.703Z,79.50
2018-01-10T16:10:37.804Z,79.44
2018-01-10T16:13:05.066Z,79.67
2018-01-10T16:15:32.832Z,80.02
2018-01-10T16:18:00.980Z,80.15
2018-01-10T16:20:39.927Z,80.20
2018-01-10T16:23:14.357Z,80.48
2018-01-10T16:25:42.346Z,80.12
2018-01-10T16:28:09.455Z,80.35
2018-01-10T16:30:36.514Z,80.46
2018-01-10T16:33:04.416Z,80.54
2018-01-10T16:35:31.480Z,80.83
2018-01-10T16:38:04.099Z,80.74
2018-01-10T16:40:31.746Z,81.11
2018-01-10T16:43:04.194Z,81.11
2018-01-10T16:45:31.183Z,81.16
2018-01-10T16:48:04.052Z,81.16
2018-01-10T16:50:39.464Z,81.01
2018-01-10T16:53:06.506Z,81.26
2018-01-10T16:55:33.601Z,81.34
2018-01-10T16:58:05.754Z,81.58
2018-01-10T17:00:34.440Z,81.77
2018-01-10T17:03:01.713Z,81.71
2018-01-10T17:05:28.827Z,81.92
2018-01-10T17:07:56.252Z,81.96
2018-01-10T17:10:23.204Z,82.00
2018-01-10T17:12:50.156Z,82.09
2018-01-10T17:15:17.778Z,82.08
2018-01-10T17:17:45.270Z,82.28
2018-01-10T17:20:12.247Z,82.38
2018-01-10T17:22:40.492Z,82.36
2018-01-10T17:25:08.415Z,82.51
2018-01-10T17:27:36.733Z,83.07
2018-01-10T17:30:03.608Z,83.05
2018-01-10T17:32:30.732Z,83.00
2018-01-10T17:34:58.122Z,83.24
2018-01-10T17:37:25.516Z,83.96
2018-01-10T17:39:53.873Z,83.41
2018-01-10T17:42:20.879Z,83.49
2018-01-10T17:44:49.276Z,83.74
2018-01-10T17:50:16.160Z,83.91
2018-01-10T17:52:44.624Z,83.97
2018-01-10T17:55:11.830Z,84.29
2018-01-10T17:57:45.804Z,84.57
2018-01-10T18:00:13.124Z,84.92
2018-01-10T18:02:40.818Z,84.79
2018-01-10T18:05:13.001Z,85.10
2018-01-10T18:07:40.013Z,85.03
2018-01-10T18:10:06.933Z,85.10
2018-01-10T18:12:35.206Z,85.34
2018-01-10T18:15:04.086Z,84.92
2018-01-10T18:17:31.938Z,85.22
2018-01-10T18:19:59.219Z,85.84
2018-01-10T18:22:26.153Z,85.79
2018-01-10T18:24:54.016Z,85.91
2018-01-10T18:27:22.320Z,86.21
2018-01-10T18:29:50.089Z,86.38
2018-01-10T18:32:17.703Z,86.25
2018-01-10T18:34:45.879Z,86.62
2018-01-10T18:37:18.990Z,86.92
2018-01-10T18:39:46.670Z,87.29
2018-01-10T18:42:14.294Z,87.07
2018-01-10T18:44:41.580Z,87.77
2018-01-10T18:47:08.891Z,87.44
2018-01-10T18:49:36.571Z,87.74
2018-01-10T18:52:04.466Z,88.23
2018-01-10T18:54:31.591Z,88.26
2018-01-10T18:57:00.376Z,88.68
2018-01-10T18:59:28.038Z,88.56
2018-01-10T19:01:55.135Z,88.21
2018-01-10T19:04:23.014Z,89.11
2018-01-10T19:06:53.177Z,88.65
2018-01-10T19:09:27.640Z,88.40
2018-01-10T19:12:00.257Z,88.50
2018-01-10T19:14:28.205Z,88.81
2018-01-10T19:16:55.337Z,89.49
2018-01-10T19:19:23.556Z,88.84
2018-01-10T19:21:54.457Z,88.98
2018-01-10T19:24:21.507Z,88.55
2018-01-10T19:26:48.550Z,88.33
2018-01-10T19:29:15.648Z,88.35
2018-01-10T19:31:43.917Z,88.63
2018-01-10T19:34:11.052Z,88.39
2018-01-10T19:36:38.276Z,88.72
2018-01-10T19:39:05.723Z,88.71
2018-01-10T19:41:32.791Z,89.34
2018-01-10T19:44:14.522Z,89.81
2018-01-10T19:46:41.613Z,89.33
2018-01-10T19:49:08.610Z,90.24
2018-01-10T19:51:36.274Z,90.63
2018-01-10T19:54:04.906Z,89.80
2018-01-10T19:56:33.907Z,90.48
2018-01-10T19:59:02.854Z,90.66
2018-01-10T20:01:30.286Z,90.94
2018-01-10T20:03:57.336Z,91.15
2018-01-10T20:06:24.293Z,90.77
2018-01-10T20:08:53.015Z,91.00
2018-01-10T20:11:19.990Z,90.62
2018-01-10T20:13:48.148Z,91.05
2018-01-10T20:16:16.038Z,91.52
2018-01-10T20:18:42.991Z,92.26
2018-01-10T20:21:10.131Z,91.25
2018-01-10T20:23:37.650Z,91.25
2018-01-10T20:26:05.017Z,91.72
2018-01-10T20:28:32.881Z,92.60
2018-01-10T20:30:59.907Z,92.76
2018-01-10T20:33:27.810Z,92.66
2018-01-10T20:35:56.329Z,92.69
2018-01-10T20:38:24.075Z,92.58
2018-01-10T20:40:52.543Z,92.18
2018-01-10T20:43:20.750Z,92.42
2018-01-10T20:45:48.485Z,92.96
2018-01-10T20:48:15.658Z,91.89
2018-01-10T20:50:43.163Z,92.42
2018-01-10T20:53:10.135Z,92.31
2018-01-10T20:55:38.669Z,92.58
2018-01-10T20:58:05.841Z,93.11
2018-01-10T21:00:32.769Z,92.87
2018-01-10T21:03:01.582Z,92.92
2018-01-10T21:05:28.740Z,93.21
2018-01-10T21:07:55.862Z,93.76
2018-01-10T21:10:22.720Z,93.56
2018-01-10T21:12:51.390Z,93.24
2018-01-10T21:15:19.891Z,93.10
2018-01-10T21:17:47.741Z,92.89
2018-01-10T21:20:16.202Z,92.65
2018-01-10T21:22:43.497Z,93.54
2018-01-10T21:25:11.978Z,91.85
2018-01-10T21:27:40.967Z,92.97
2018-01-10T21:30:08.992Z,93.79
2018-01-10T21:32:37.061Z,93.38
2018-01-10T21:35:04.079Z,94.17
2018-01-10T21:37:31.848Z,94.15
2018-01-10T21:39:58.769Z,93.82
2018-01-10T21:42:25.657Z,93.23
2018-01-10T21:44:52.668Z,92.27
2018-01-10T21:47:19.594Z,92.71
2018-01-10T21:49:46.522Z,91.88
2018-01-10T21:52:13.455Z,92.69
2018-01-10T21:54:41.320Z,92.65
2018-01-10T21:57:08.940Z,93.05
2018-01-10T21:59:35.752Z,91.70
2018-01-10T22:02:02.575Z,92.61
2018-01-10T22:04:29.468Z,93.18
2018-01-10T22:06:58.044Z,92.20
2018-01-10T22:09:25.130Z,92.80
2018-01-10T22:11:52.191Z,93.42
2018-01-10T22:14:19.345Z,92.98
2018-01-10T22:16:46.304Z,93.53
2018-01-10T22:19:13.344Z,93.79
2018-01-10T22:21:54.789Z,92.67
2018-01-10T22:24:21.779Z,91.86
2018-01-10T22:26:49.053Z,92.68
2018-01-10T22:29:16.620Z,93.43
2018-01-10T22:31:43.815Z,93.08
2018-01-10T22:34:10.739Z,92.55
2018-01-10T22:36:37.661Z,93.07
2018-01-10T22:39:05.056Z,92.00
2018-01-10T22:41:32.054Z,93.12
2018-01-10T22:43:59.377Z,93.25
2018-01-10T22:46:26.896Z,92.07
2018-01-10T22:48:54.368Z,92.85
2018-01-10T22:51:21.615Z,92.46
2018-01-10T22:53:49.265Z,92.88
2018-01-10T22:56:16.873Z,92.67
2018-01-10T22:58:43.879Z,91.66
2018-01-10T23:01:10.814Z,91.68
2018-01-10T23:03:37.903Z,91.50
2018-01-10T23:06:05.263Z,91.47
2018-01-10T23:08:33.234Z,91.17
2018-01-10T23:11:01.325Z,91.92
2018-01-10T23:13:28.528Z,91.42
2018-01-10T23:15:56.157Z,92.63
2018-01-10T23:18:23.092Z,91.66
2018-01-10T23:20:50.588Z,91.92
2018-01-10T23:23:17.454Z,92.37
2018-01-10T23:25:57.965Z,92.18
2018-01-10T23:28:24.863Z,92.86
2018-01-10T23:30:52.402Z,91.64
2018-01-10T23:33:19.662Z,91.95
2018-01-10T23:35:47.021Z,92.28
2018-01-10T23:38:14.523Z,91.33
2018-01-10T23:40:42.164Z,91.08
2018-01-10T23:43:09.078Z,91.16
2018-01-10T23:45:36.009Z,91.19
2018-01-10T23:48:03.352Z,91.28
2018-01-10T23:50:30.282Z,91.71
2018-01-10T23:52:57.176Z,91.37
2018-01-10T23:55:24.076Z,92.61
2018-01-10T23:57:52.045Z,92.77
